Time;durP1;ratioP1;P1;durP2;ratioP2;P2;SDS_P1;SDS_P2;PMS_P1;PMS_P2;Temp;Humidity;BMP_temperature;BMP_pressure;BME280_temperature;BME280_humidity;BME280_pressure;Samples;Min_cycle;Max_cycle;Signal;HPM_P1;HPM_P2
2021/12/22 00:01:34;;;;;;;64.85;25.38;;;-1.00;99.90;;;;;;2602333;54;20655;31
2021/12/22 00:04:09;;;;;;;60.20;25.13;;;-1.00;99.90;;;;;;2603578;54;20177;31
2021/12/22 00:06:46;;;;;;;49.40;23.48;;;-1.00;99.90;;;;;;2702400;39;20585;31
2021/12/22 00:09:21;;;;;;;46.78;23.35;;;-1.00;99.90;;;;;;2602967;54;21348;31
2021/12/22 00:11:57;;;;;;;55.80;24.48;;;-1.00;99.90;;;;;;2603776;54;20026;31
2021/12/22 00:14:36;;;;;;;56.20;24.90;;;-1.00;99.90;;;;;;2604080;54;20031;31
2021/12/22 00:17:13;;;;;;;51.55;24.10;;;-1.00;99.90;;;;;;2603999;54;20144;31
2021/12/22 00:19:50;;;;;;;50.60;23.50;;;-1.00;99.90;;;;;;2621802;46;20040;31
2021/12/22 00:22:25;;;;;;;54.00;26.05;;;-1.00;99.90;;;;;;2702339;39;20650;31
2021/12/22 00:25:00;;;;;;;48.00;23.92;;;-1.00;99.90;;;;;;2603715;54;21458;31
2021/12/22 00:27:35;;;;;;;43.25;22.98;;;-1.00;99.90;;;;;;2603714;54;20065;31
2021/12/22 00:30:15;;;;;;;41.15;21.42;;;-1.00;99.90;;;;;;2603598;54;20828;31
2021/12/22 00:32:52;;;;;;;42.13;21.88;;;-1.00;99.90;;;;;;2603845;54;20031;31
2021/12/22 00:35:30;;;;;;;;;;;-1.00;99.90;;;;;;2604076;54;20089;31
2021/12/22 00:38:04;;;;;;;32.07;20.10;;;-1.00;99.90;;;;;;2603040;54;20789;31
2021/12/22 00:40:39;;;;;;;29.35;18.45;;;-1.00;99.90;;;;;;2602974;54;21065;31
2021/12/22 00:43:16;;;;;;;38.30;19.67;;;-1.00;99.90;;;;;;2603576;54;20093;31
2021/12/22 00:45:56;;;;;;;40.25;22.30;;;-1.00;99.90;;;;;;2603732;54;20022;31
2021/12/22 00:48:34;;;;;;;37.83;22.13;;;-1.10;99.90;;;;;;2702253;39;20338;31
2021/12/22 00:51:10;;;;;;;37.00;19.67;;;-1.00;99.90;;;;;;2602975;54;20849;31
2021/12/22 00:53:45;;;;;;;35.33;19.98;;;-1.00;99.90;;;;;;2603686;54;20241;31
2021/12/22 00:56:19;;;;;;;36.00;21.65;;;-1.00;99.90;;;;;;2603090;54;20029;31
2021/12/22 00:58:54;;;;;;;43.20;21.65;;;-1.00;99.90;;;;;;2603541;54;20019;31
2021/12/22 01:01:34;;;;;;;37.85;19.60;;;-1.10;99.90;;;;;;2603428;54;20097;31
2021/12/22 01:04:13;;;;;;;36.05;21.45;;;-1.00;99.90;;;;;;2603253;54;20873;31
2021/12/22 01:06:49;;;;;;;33.95;19.95;;;-1.10;99.90;;;;;;2603774;54;20038;31
2021/12/22 01:09:25;;;;;;;37.55;20.55;;;-1.10;99.90;;;;;;2603594;54;20030;31
2021/12/22 01:12:01;;;;;;;34.83;20.63;;;-1.10;99.90;;;;;;2603523;54;20027;31
2021/12/22 01:14:39;;;;;;;38.80;21.45;;;-1.10;99.90;;;;;;2603423;54;20098;31
2021/12/22 01:17:17;;;;;;;33.43;21.10;;;-1.10;99.90;;;;;;2602951;54;21381;31
2021/12/22 01:20:05;;;;;;;37.07;21.60;;;-1.10;99.90;;;;;;2602702;54;20103;31
2021/12/22 01:22:47;;;;;;;34.05;20.35;;;-1.20;99.90;;;;;;2603722;54;20044;31
2021/12/22 01:25:24;;;;;;;35.75;19.80;;;-1.20;99.90;;;;;;2603507;54;20907;31
2021/12/22 01:27:59;;;;;;;36.30;19.40;;;-1.30;99.90;;;;;;2622350;46;20037;31
2021/12/22 01:30:36;;;;;;;36.22;20.77;;;-1.30;99.90;;;;;;2622164;46;21354;31
2021/12/22 01:33:13;;;;;;;34.38;19.67;;;-1.40;99.90;;;;;;2603641;54;20033;31
2021/12/22 01:35:51;;;;;;;36.13;19.57;;;-1.40;99.90;;;;;;2603525;54;20044;31
2021/12/22 01:38:26;;;;;;;33.00;18.27;;;-1.40;99.90;;;;;;2603739;54;20840;31
2021/12/22 01:41:00;;;;;;;34.58;19.92;;;-1.50;99.90;;;;;;2603542;54;20022;31
2021/12/22 01:43:35;;;;;;;32.10;19.15;;;-1.50;99.90;;;;;;2603555;54;20137;31
2021/12/22 01:49:08;;;;;;;33.88;19.15;;;-1.50;99.90;;;;;;2603329;54;20038;31
2021/12/22 01:49:17;;;;;;;;;;;-1.60;99.90;;;;;;2603679;54;20038;31
2021/12/22 01:51:58;;;;;;;32.20;18.10;;;-1.50;99.90;;;;;;2603528;54;19938;31
2021/12/22 01:54:36;;;;;;;33.37;19.67;;;-1.60;99.90;;;;;;2603421;54;20080;31
2021/12/22 01:57:12;;;;;;;32.42;18.50;;;-1.50;99.90;;;;;;2603598;54;20068;31
2021/12/22 01:59:47;;;;;;;31.23;19.07;;;-1.50;99.90;;;;;;2603688;54;20874;31
2021/12/22 02:02:23;;;;;;;34.80;19.30;;;-1.50;99.90;;;;;;2603570;54;20030;31
2021/12/22 02:05:02;;;;;;;36.95;19.77;;;-1.50;99.90;;;;;;2603215;54;20050;31
2021/12/22 02:07:37;;;;;;;37.10;20.13;;;-1.50;99.90;;;;;;2603458;54;20061;31
2021/12/22 02:10:29;;;;;;;31.58;18.48;;;-1.50;99.90;;;;;;2603485;46;20097;31
2021/12/22 02:13:08;;;;;;;33.57;18.73;;;-1.50;99.90;;;;;;2603470;54;20027;31
2021/12/22 02:15:44;;;;;;;32.20;17.25;;;-1.50;99.90;;;;;;2622110;46;20840;31
2021/12/22 02:18:20;;;;;;;32.25;18.50;;;-1.50;99.90;;;;;;2603467;54;20148;31
2021/12/22 02:20:58;;;;;;;34.55;18.35;;;-1.50;99.90;;;;;;2603315;54;20042;31
2021/12/22 02:23:35;;;;;;;29.90;17.77;;;-1.50;99.90;;;;;;2603497;54;20891;31
2021/12/22 02:26:14;;;;;;;;;;;-1.50;99.90;;;;;;2602769;54;20717;31
2021/12/22 02:28:57;;;;;;;30.70;17.53;;;-1.50;99.90;;;;;;2773128;31;20506;31
2021/12/22 02:31:37;;;;;;;30.83;16.57;;;-1.50;99.90;;;;;;2603446;54;20044;31
2021/12/22 02:34:16;;;;;;;27.60;16.42;;;-1.50;99.90;;;;;;2603427;54;20101;31
2021/12/22 02:36:59;;;;;;;32.87;16.83;;;-1.50;99.90;;;;;;2603318;54;20050;31
2021/12/22 02:39:34;;;;;;;32.58;17.58;;;-1.50;99.90;;;;;;2603099;54;20342;31
2021/12/22 02:42:13;;;;;;;33.10;18.00;;;-1.60;99.90;;;;;;2701820;39;20577;31
2021/12/22 02:44:49;;;;;;;34.67;16.70;;;-1.60;99.90;;;;;;2602489;54;20865;31
2021/12/22 02:47:28;;;;;;;29.30;16.45;;;-1.60;99.90;;;;;;2603360;54;20590;31
2021/12/22 02:50:03;;;;;;;32.72;16.45;;;-1.50;99.90;;;;;;2603300;54;20049;31
2021/12/22 02:55:40;;;;;;;29.40;16.67;;;-1.60;99.90;;;;;;2603322;54;20026;31
2021/12/22 02:58:24;;;;;;;29.10;17.57;;;-1.50;99.90;;;;;;2621708;46;20105;31
2021/12/22 03:01:22;;;;;;;28.65;16.20;;;-1.50;99.90;;;;;;2603452;54;20901;31
2021/12/22 03:04:00;;;;;;;28.77;14.77;;;-1.50;99.90;;;;;;2603059;54;20104;31
2021/12/22 03:06:40;;;;;;;23.73;14.45;;;-1.40;99.90;;;;;;2603164;54;20042;31
2021/12/22 03:09:29;;;;;;;24.30;14.50;;;-1.50;99.90;;;;;;2603208;54;20033;31
2021/12/22 03:12:08;;;;;;;21.90;12.15;;;-1.50;99.90;;;;;;2603164;54;20053;31
2021/12/22 03:14:46;;;;;;;20.80;12.02;;;-1.50;99.90;;;;;;2603299;54;20030;31
2021/12/22 03:17:20;;;;;;;20.73;11.98;;;-1.50;99.90;;;;;;2603192;54;20624;31
2021/12/22 03:19:55;;;;;;;16.60;10.23;;;-1.50;99.90;;;;;;2603176;54;20792;31
2021/12/22 03:22:29;;;;;;;17.83;10.25;;;-1.60;99.90;;;;;;2603345;54;19959;31
2021/12/22 03:25:14;;;;;;;15.98;9.57;;;-1.50;99.90;;;;;;2603192;54;20037;31
2021/12/22 03:27:50;;;;;;;19.75;10.40;;;-1.60;99.90;;;;;;2603189;54;20035;31
2021/12/22 03:30:27;;;;;;;18.40;10.23;;;-1.60;99.90;;;;;;2602461;54;20076;31
2021/12/22 03:33:03;;;;;;;17.67;10.60;;;-1.60;99.90;;;;;;2603303;54;20061;31
2021/12/22 03:35:39;;;;;;;20.95;10.90;;;-1.60;99.90;;;;;;2603086;54;20133;31
2021/12/22 03:38:16;;;;;;;18.40;11.60;;;-1.60;99.90;;;;;;2603189;54;20145;31
2021/12/22 03:40:55;;;;;;;19.48;11.20;;;-1.60;99.90;;;;;;2603932;54;20565;31
2021/12/22 03:43:28;;;;;;;20.55;12.98;;;-1.60;99.90;;;;;;2702594;39;21035;31
2021/12/22 03:46:03;;;;;;;22.50;13.75;;;-1.60;99.90;;;;;;2604020;54;20031;31
2021/12/22 03:48:39;;;;;;;25.13;14.25;;;-1.60;99.90;;;;;;2603163;54;20935;31
2021/12/22 03:51:14;;;;;;;22.00;13.35;;;-1.60;99.90;;;;;;2603775;54;20038;31
2021/12/22 03:53:52;;;;;;;25.80;13.85;;;-1.60;99.90;;;;;;2603376;54;20835;31
2021/12/22 03:56:29;;;;;;;23.80;13.77;;;-1.50;99.90;;;;;;2603766;54;20930;31
2021/12/22 03:59:06;;;;;;;22.43;12.10;;;-1.50;99.90;;;;;;2603801;54;21097;31
2021/12/22 04:01:40;;;;;;;23.58;11.85;;;-1.50;99.90;;;;;;2603977;54;20112;31
2021/12/22 04:04:18;;;;;;;22.55;12.38;;;-1.50;99.90;;;;;;2603962;54;20062;31
2021/12/22 04:07:02;;;;;;;24.80;12.68;;;-1.50;99.90;;;;;;2604085;54;20042;31
2021/12/22 04:09:36;;;;;;;21.10;11.55;;;-1.50;99.90;;;;;;2603729;54;20027;31
2021/12/22 04:12:15;;;;;;;21.17;12.18;;;-1.50;99.90;;;;;;2603779;54;20589;31
2021/12/22 04:14:51;;;;;;;22.73;12.67;;;-1.50;99.90;;;;;;2603854;54;20826;31
2021/12/22 04:17:27;;;;;;;22.52;11.93;;;-1.50;99.90;;;;;;2604078;54;20247;31
2021/12/22 04:20:02;;;;;;;24.70;14.57;;;-1.50;99.90;;;;;;2603734;54;20145;31
2021/12/22 04:22:44;;;;;;;20.52;12.15;;;-1.50;99.90;;;;;;2603917;54;20052;31
2021/12/22 04:25:22;;;;;;;23.08;12.23;;;-1.50;99.90;;;;;;2603724;54;20855;31
2021/12/22 04:28:03;;;;;;;24.83;13.60;;;-1.50;99.90;;;;;;2603947;54;20843;31
2021/12/22 04:30:40;;;;;;;23.05;11.95;;;-1.50;99.90;;;;;;2603001;54;19945;31
2021/12/22 04:33:15;;;;;;;19.13;12.18;;;-1.50;99.90;;;;;;2617758;46;20867;31
2021/12/22 04:35:50;;;;;;;19.65;11.80;;;-1.50;99.90;;;;;;2603063;54;20109;31
2021/12/22 04:38:25;;;;;;;19.30;11.20;;;-1.60;99.90;;;;;;2702329;39;20451;31
2021/12/22 04:40:59;;;;;;;21.20;11.20;;;-1.60;99.90;;;;;;2603679;54;20073;31
2021/12/22 04:43:37;;;;;;;18.27;10.93;;;-1.60;99.90;;;;;;2603663;54;20169;31
2021/12/22 04:46:13;;;;;;;15.70;9.95;;;-1.60;99.90;;;;;;2603710;54;20049;31
2021/12/22 04:48:51;;;;;;;16.58;10.15;;;-1.60;99.90;;;;;;2617415;46;20837;31
2021/12/22 04:51:29;;;;;;;18.90;10.95;;;-1.50;99.90;;;;;;2603610;54;20034;31
2021/12/22 04:54:16;;;;;;;20.70;10.65;;;-1.50;99.90;;;;;;2604073;54;20140;31
2021/12/22 04:56:51;;;;;;;19.92;10.68;;;-1.50;99.90;;;;;;2702078;39;20482;31
2021/12/22 04:59:29;;;;;;;16.60;10.23;;;-1.60;99.90;;;;;;2603854;54;20819;31
2021/12/22 05:02:04;;;;;;;19.25;10.45;;;-1.60;99.90;;;;;;2603793;54;20841;31
2021/12/22 05:04:39;;;;;;;16.20;10.45;;;-1.60;99.90;;;;;;2613278;46;20077;31
2021/12/22 05:07:13;;;;;;;16.50;8.70;;;-1.60;99.90;;;;;;2622072;46;20881;31
2021/12/22 05:09:48;;;;;;;18.45;9.85;;;-1.70;99.90;;;;;;2603584;54;20081;31
2021/12/22 05:12:25;;;;;;;18.13;10.98;;;-1.70;99.90;;;;;;2603433;54;20026;31
2021/12/22 05:15:04;;;;;;;18.38;9.95;;;-1.70;99.90;;;;;;2603747;54;20030;31
2021/12/22 05:18:12;;;;;;;17.57;10.07;;;-1.70;99.90;;;;;;2603814;54;20856;31
2021/12/22 05:20:49;;;;;;;18.55;10.15;;;-1.70;99.90;;;;;;2603490;54;20046;31
2021/12/22 05:23:23;;;;;;;19.17;9.65;;;-1.70;99.90;;;;;;2603456;54;20026;31
2021/12/22 05:25:58;;;;;;;14.60;9.73;;;-1.60;99.90;;;;;;2621683;46;20882;31
2021/12/22 05:28:32;;;;;;;16.92;9.80;;;-1.60;99.90;;;;;;2603582;54;20026;31
2021/12/22 05:31:10;;;;;;;13.10;8.23;;;-1.60;99.90;;;;;;2701829;39;20465;31
2021/12/22 05:33:45;;;;;;;14.07;8.23;;;-1.60;99.90;;;;;;2603785;54;20060;31
2021/12/22 05:36:20;;;;;;;12.95;7.97;;;-1.60;99.90;;;;;;2603599;54;20031;31
2021/12/22 05:38:55;;;;;;;12.10;7.35;;;-1.70;99.90;;;;;;2603548;54;20027;31
2021/12/22 05:41:31;;;;;;;12.35;6.95;;;-1.70;99.90;;;;;;2621722;46;20098;31
2021/12/22 05:44:08;;;;;;;12.77;7.10;;;-1.70;99.90;;;;;;2603607;54;20557;31
2021/12/22 05:46:47;;;;;;;13.50;7.28;;;-1.70;99.90;;;;;;2603354;54;20889;31
2021/12/22 05:49:24;;;;;;;10.15;6.05;;;-1.70;99.90;;;;;;2603721;54;20046;31
2021/12/22 05:51:59;;;;;;;9.07;5.80;;;-1.70;99.90;;;;;;2603643;54;20037;31
2021/12/22 05:54:40;;;;;;;10.43;5.45;;;-1.80;99.90;;;;;;2621756;46;21243;31
2021/12/22 05:57:15;;;;;;;11.88;5.90;;;-1.80;99.90;;;;;;2603606;54;20046;31
2021/12/22 05:59:50;;;;;;;8.25;5.40;;;-1.80;99.90;;;;;;2603459;54;20054;31
2021/12/22 06:02:59;;;;;;;10.48;6.10;;;-1.80;99.90;;;;;;2603577;54;20031;31
2021/12/22 06:05:34;;;;;;;12.50;5.65;;;-1.80;99.90;;;;;;2701754;39;20577;31
2021/12/22 06:08:09;;;;;;;9.30;5.70;;;-1.80;99.90;;;;;;2603398;54;20599;31
2021/12/22 06:10:48;;;;;;;8.75;5.28;;;-1.80;99.90;;;;;;2603450;54;20086;31
2021/12/22 06:13:31;;;;;;;11.70;6.90;;;-1.80;99.90;;;;;;2603407;54;20561;31
2021/12/22 06:16:08;;;;;;;12.90;7.75;;;-1.70;99.90;;;;;;2603406;54;20052;31
2021/12/22 06:18:45;;;;;;;13.15;7.20;;;-1.70;99.90;;;;;;2628410;39;21023;31
2021/12/22 06:21:22;;;;;;;9.50;6.40;;;-1.70;99.90;;;;;;2603268;54;20046;31
2021/12/22 06:23:58;;;;;;;11.23;6.28;;;-1.70;99.90;;;;;;2603673;54;20668;31
2021/12/22 06:26:32;;;;;;;11.70;7.10;;;-1.70;99.90;;;;;;2622128;46;21008;31
2021/12/22 06:29:07;;;;;;;14.93;8.00;;;-1.70;99.90;;;;;;2603304;54;20026;31
2021/12/22 06:31:45;;;;;;;13.13;8.57;;;-1.70;99.90;;;;;;2603452;54;20110;31
2021/12/22 06:34:30;;;;;;;16.27;8.40;;;-1.70;99.90;;;;;;2720870;39;21022;31
2021/12/22 06:37:08;;;;;;;13.65;7.78;;;-1.80;99.90;;;;;;2603305;54;20082;31
2021/12/22 06:39:47;;;;;;;15.13;8.27;;;-1.70;99.90;;;;;;2619442;46;20577;31
2021/12/22 06:42:22;;;;;;;14.30;8.43;;;-1.70;99.90;;;;;;2602646;54;20072;31
2021/12/22 06:44:57;;;;;;;15.50;9.13;;;-1.80;99.90;;;;;;2603180;54;20964;31
2021/12/22 06:47:32;;;;;;;13.65;8.40;;;-1.80;99.90;;;;;;2603251;54;20895;31
2021/12/22 06:50:16;;;;;;;14.20;8.77;;;-1.80;99.90;;;;;;2603218;54;20857;31
2021/12/22 06:52:52;;;;;;;17.27;8.90;;;-1.70;99.90;;;;;;2603114;54;20113;31
2021/12/22 06:55:29;;;;;;;14.40;8.90;;;-1.70;99.90;;;;;;2602673;54;20027;31
2021/12/22 06:58:05;;;;;;;12.55;7.95;;;-1.70;99.90;;;;;;2701500;39;21473;31
2021/12/22 07:00:42;;;;;;;13.50;7.68;;;-1.70;99.90;;;;;;2603218;54;20659;31
2021/12/22 07:03:36;;;;;;;15.35;9.20;;;-1.70;99.90;;;;;;2602615;54;20884;31
2021/12/22 07:06:12;;;;;;;17.10;9.85;;;-1.70;99.90;;;;;;2609448;39;21091;31
2021/12/22 07:08:47;;;;;;;22.10;14.13;;;-1.70;99.90;;;;;;2603118;54;20646;31
2021/12/22 07:11:22;;;;;;;17.50;11.77;;;-1.70;99.90;;;;;;2603157;54;20077;31
2021/12/22 07:14:00;;;;;;;17.85;10.15;;;-1.70;99.90;;;;;;2602971;54;20033;31
2021/12/22 07:16:35;;;;;;;13.80;7.90;;;-1.70;99.90;;;;;;2603322;54;20399;31
2021/12/22 07:19:08;;;;;;;14.27;8.75;;;-1.70;99.90;;;;;;2602349;54;22676;31
2021/12/22 07:21:48;;;;;;;14.50;7.50;;;-1.80;99.90;;;;;;2603090;54;20899;31
2021/12/22 07:24:22;;;;;;;15.43;7.82;;;-1.80;99.90;;;;;;2621588;47;20033;31
2021/12/22 07:26:57;;;;;;;17.15;8.60;;;-1.80;99.90;;;;;;2603095;54;20065;31
2021/12/22 07:29:32;;;;;;;13.43;7.53;;;-1.70;99.90;;;;;;2602998;54;20033;31
2021/12/22 07:32:07;;;;;;;15.57;8.57;;;-1.80;99.90;;;;;;2602383;54;20852;31
2021/12/22 07:34:45;;;;;;;13.35;9.13;;;-1.70;99.90;;;;;;2701609;39;20441;31
2021/12/22 07:37:26;;;;;;;17.85;10.00;;;-1.70;99.90;;;;;;2603080;54;20085;31
2021/12/22 07:40:01;;;;;;;17.85;9.65;;;-1.80;99.90;;;;;;2603240;54;20038;31
2021/12/22 07:42:35;;;;;;;17.67;10.52;;;-1.70;99.90;;;;;;2603043;54;20197;31
2021/12/22 07:45:09;;;;;;;17.75;9.98;;;-1.70;99.90;;;;;;2701655;39;20974;31
2021/12/22 07:47:44;;;;;;;15.80;8.73;;;-1.70;99.90;;;;;;2603014;54;20022;31
2021/12/22 07:50:17;;;;;;;15.90;8.53;;;-1.70;99.90;;;;;;2609254;39;21183;31
2021/12/22 07:52:55;;;;;;;15.13;8.52;;;-1.80;99.90;;;;;;2603185;54;20253;31
2021/12/22 07:55:29;;;;;;;14.95;9.02;;;-1.80;99.90;;;;;;2602882;54;20091;31
2021/12/22 07:58:02;;;;;;;15.90;8.97;;;-1.80;99.90;;;;;;2609385;39;21114;31
2021/12/22 08:00:37;;;;;;;15.57;8.93;;;-1.80;99.90;;;;;;2603014;54;20039;31
2021/12/22 08:03:16;;;;;;;16.30;9.50;;;-1.80;99.90;;;;;;2603043;54;20034;31
2021/12/22 08:06:10;;;;;;;15.00;9.10;;;-1.80;99.90;;;;;;2621601;47;20053;31
2021/12/22 08:08:48;;;;;;;14.57;8.35;;;-1.70;99.90;;;;;;2603059;54;20090;31
2021/12/22 08:11:28;;;;;;;15.80;8.75;;;-1.70;99.90;;;;;;2603175;54;20851;31
2021/12/22 08:14:03;;;;;;;18.33;10.05;;;-1.70;99.90;;;;;;2701565;39;20592;31
2021/12/22 08:16:40;;;;;;;17.13;9.45;;;-1.70;99.90;;;;;;2602993;54;20561;31
2021/12/22 08:19:16;;;;;;;15.35;9.05;;;-1.70;99.90;;;;;;2602846;54;20027;31
2021/12/22 08:21:54;;;;;;;16.15;8.40;;;-1.70;99.90;;;;;;2602919;54;20038;31
2021/12/22 08:24:32;;;;;;;16.15;8.80;;;-1.70;99.90;;;;;;2602949;54;20038;31
2021/12/22 08:27:07;;;;;;;17.13;9.23;;;-1.50;99.90;;;;;;2603831;54;20039;31
2021/12/22 08:29:44;;;;;;;18.10;9.75;;;-1.60;99.90;;;;;;2603785;54;20042;31
2021/12/22 08:32:19;;;;;;;16.70;9.52;;;-1.60;99.90;;;;;;2603894;54;20046;31
2021/12/22 08:34:57;;;;;;;19.95;10.98;;;-1.50;99.90;;;;;;2603923;54;20026;31
2021/12/22 08:40:21;;;;;;;20.20;9.90;;;-1.40;99.90;;;;;;2603740;54;20037;31
2021/12/22 08:42:58;;;;;;;11.63;7.95;;;-1.40;99.90;;;;;;2603847;54;20886;31
2021/12/22 08:45:33;;;;;;;16.38;8.60;;;-1.30;99.90;;;;;;2621959;46;20049;31
2021/12/22 08:48:08;;;;;;;15.35;9.60;;;-1.30;99.90;;;;;;2603703;54;20046;31
2021/12/22 08:50:43;;;;;;;20.75;10.80;;;-1.30;99.90;;;;;;2603677;54;20089;31
2021/12/22 08:53:18;;;;;;;17.60;10.50;;;-1.30;99.90;;;;;;2603657;54;20906;31
2021/12/22 08:55:56;;;;;;;20.05;11.07;;;-1.20;99.90;;;;;;2716119;39;20484;31
2021/12/22 08:58:36;;;;;;;17.67;10.03;;;-1.20;99.90;;;;;;2603503;54;20023;31
2021/12/22 09:01:11;;;;;;;17.15;10.38;;;-1.20;99.90;;;;;;2603922;54;21286;31
2021/12/22 09:03:46;;;;;;;36.75;11.15;;;-1.10;99.90;;;;;;2603816;54;21330;31
2021/12/22 09:06:22;;;;;;;17.25;10.50;;;-1.10;99.90;;;;;;2702427;39;20595;31
2021/12/22 09:08:58;;;;;;;20.17;12.25;;;-1.00;99.90;;;;;;2603471;54;21064;31
2021/12/22 09:11:36;;;;;;;22.98;11.30;;;-1.00;99.90;;;;;;2603795;54;20022;31
2021/12/22 09:14:11;;;;;;;16.58;10.52;;;-0.90;99.90;;;;;;2603520;54;20899;31
2021/12/22 09:16:48;;;;;;;20.65;12.45;;;-0.70;99.90;;;;;;2603569;54;20812;31
2021/12/22 09:19:33;;;;;;;20.98;11.80;;;-0.40;99.90;;;;;;2603609;54;20093;31
2021/12/22 09:22:08;;;;;;;20.85;11.15;;;-0.10;99.90;;;;;;2603510;54;20030;31
2021/12/22 09:24:44;;;;;;;24.02;12.77;;;0.10;99.90;;;;;;2603570;54;20596;31
2021/12/22 09:27:23;;;;;;;17.30;11.40;;;0.20;99.90;;;;;;2603520;54;20092;31
2021/12/22 09:30:03;;;;;;;25.92;11.93;;;0.30;99.90;;;;;;2603746;54;20046;31
2021/12/22 09:32:38;;;;;;;19.95;11.55;;;0.40;99.90;;;;;;2622034;46;20031;31
2021/12/22 09:35:13;;;;;;;19.60;10.68;;;0.70;99.90;;;;;;2603564;54;20933;31
2021/12/22 09:37:51;;;;;;;23.95;13.85;;;0.90;99.90;;;;;;2603516;54;20027;31
2021/12/22 09:40:26;;;;;;;25.60;14.75;;;0.90;99.90;;;;;;2764949;31;20073;31
2021/12/22 09:43:03;;;;;;;24.85;13.93;;;1.00;99.90;;;;;;2603149;54;20903;31
2021/12/22 09:45:43;;;;;;;25.38;13.55;;;1.00;99.90;;;;;;2603653;54;20866;31
2021/12/22 09:48:28;;;;;;;15.18;9.20;;;1.10;99.90;;;;;;2603416;54;20812;31
2021/12/22 09:53:51;;;;;;;19.10;12.15;;;1.30;99.90;;;;;;2603441;54;20103;31
2021/12/22 09:56:27;;;;;;;25.95;14.43;;;1.30;99.90;;;;;;2622117;46;20143;31
2021/12/22 09:59:05;;;;;;;20.73;13.03;;;1.30;99.90;;;;;;2603484;54;20026;31
2021/12/22 10:01:40;;;;;;;17.42;11.85;;;1.40;99.90;;;;;;2603324;54;21117;31
2021/12/22 10:04:18;;;;;;;19.63;10.18;;;1.60;99.90;;;;;;2617386;46;20022;31
2021/12/22 10:06:54;;;;;;;18.65;11.90;;;1.90;99.90;;;;;;2608551;46;20046;31
2021/12/22 10:09:32;;;;;;;10.88;7.60;;;2.10;99.90;;;;;;2621742;46;20026;31
2021/12/22 10:12:08;;;;;;;12.95;7.85;;;2.10;99.90;;;;;;2603227;54;20046;31
2021/12/22 10:14:58;;;;;;;14.27;8.70;;;2.10;99.90;;;;;;2603235;54;20973;31
2021/12/22 10:17:37;;;;;;;9.38;5.90;;;1.90;99.90;;;;;;2603411;54;20046;31
2021/12/22 10:20:16;;;;;;;9.27;5.63;;;1.90;99.90;;;;;;2603260;54;20034;31
2021/12/22 10:22:52;;;;;;;11.98;6.30;;;1.80;99.90;;;;;;2603342;54;20881;31
2021/12/22 10:25:29;;;;;;;10.10;5.70;;;1.70;99.90;;;;;;2622146;46;20031;31
2021/12/22 10:28:18;;;;;;;10.30;6.57;;;1.70;99.90;;;;;;2603658;54;20049;31
2021/12/22 10:30:58;;;;;;;10.35;7.78;;;1.70;99.90;;;;;;2603479;54;20242;31
2021/12/22 10:33:40;;;;;;;13.15;8.15;;;1.60;99.90;;;;;;2603368;54;20914;31
2021/12/22 10:36:16;;;;;;;13.73;7.97;;;1.60;99.90;;;;;;2621870;46;20031;31
2021/12/22 10:38:59;;;;;;;18.55;8.75;;;1.40;99.90;;;;;;2603419;54;20053;31
2021/12/22 10:41:37;;;;;;;10.63;6.03;;;1.30;99.90;;;;;;2622767;46;20042;-73
2021/12/22 10:44:09;;;;;;;10.85;6.25;;;1.40;99.90;;;;;;2609666;39;20966;31
2021/12/22 10:46:49;;;;;;;9.50;6.40;;;1.50;99.90;;;;;;2603172;54;20025;31
2021/12/22 10:49:20;;;;;;;8.43;5.40;;;1.40;99.90;;;;;;2602814;54;20963;31
2021/12/22 10:51:59;;;;;;;13.45;7.70;;;1.30;99.90;;;;;;2603234;54;20029;31
2021/12/22 10:54:35;;;;;;;8.52;6.35;;;1.20;99.90;;;;;;2603370;54;20022;31
2021/12/22 10:57:12;;;;;;;10.80;6.75;;;1.20;99.90;;;;;;2603336;54;20038;31
2021/12/22 10:59:49;;;;;;;9.68;6.72;;;1.20;99.90;;;;;;2621221;46;20846;31
2021/12/22 11:02:34;;;;;;;11.35;7.47;;;1.10;99.90;;;;;;2603245;54;20033;31
2021/12/22 11:07:41;;;;;;;12.73;7.47;;;1.00;99.90;;;;;;2603358;54;20951;31
2021/12/22 11:10:27;;;;;;;;;;;0.90;99.90;;;;;;2603382;54;20018;31
2021/12/22 11:13:07;;;;;;;11.90;7.25;;;0.80;99.90;;;;;;2604333;47;19935;31
2021/12/22 11:15:48;;;;;;;15.70;8.18;;;0.80;99.90;;;;;;2621132;46;20033;31
2021/12/22 11:18:42;;;;;;;15.17;7.87;;;0.70;99.90;;;;;;2603178;54;20027;31
2021/12/22 11:21:23;;;;;;;12.52;7.78;;;0.80;99.90;;;;;;2603163;54;20022;31
2021/12/22 11:23:58;;;;;;;12.02;7.50;;;0.80;99.90;;;;;;2603165;54;20057;31
2021/12/22 11:26:33;;;;;;;9.90;6.88;;;0.80;99.90;;;;;;2603043;54;20038;31
2021/12/22 11:29:10;;;;;;;14.07;7.85;;;0.80;99.90;;;;;;2603659;47;20038;31
2021/12/22 11:31:47;;;;;;;12.18;6.45;;;0.90;99.90;;;;;;2603723;47;21227;31
2021/12/22 11:34:22;;;;;;;11.60;7.00;;;0.90;99.90;;;;;;2608620;39;21060;31
2021/12/22 11:37:12;;;;;;;11.77;7.38;;;0.90;99.90;;;;;;2602975;54;20042;31
2021/12/22 11:39:46;;;;;;;14.35;7.05;;;0.90;99.90;;;;;;2603308;54;20027;31
2021/12/22 11:42:25;;;;;;;12.07;7.20;;;0.80;99.90;;;;;;2603065;54;20049;31
2021/12/22 11:45:02;;;;;;;13.00;7.55;;;0.70;99.90;;;;;;2603188;54;20880;31
2021/12/22 11:47:39;;;;;;;12.45;8.30;;;0.70;99.90;;;;;;2603103;54;20129;31
2021/12/22 11:50:22;;;;;;;11.52;7.57;;;0.70;99.90;;;;;;2602823;54;20089;31
2021/12/22 11:52:59;;;;;;;10.70;7.10;;;0.70;99.90;;;;;;2603368;54;20030;31
2021/12/22 11:55:40;;;;;;;12.23;7.55;;;0.60;99.90;;;;;;2603017;54;20536;31
2021/12/22 11:58:19;;;;;;;11.27;6.78;;;0.60;99.90;;;;;;2602933;54;20049;31
2021/12/22 12:01:08;;;;;;;10.40;6.28;;;0.60;99.90;;;;;;2603682;54;20870;31
2021/12/22 12:03:45;;;;;;;14.05;7.30;;;0.60;99.90;;;;;;2609722;54;20436;31
2021/12/22 12:06:30;;;;;;;12.70;6.85;;;0.60;99.90;;;;;;2612527;39;20967;31
2021/12/22 12:09:13;;;;;;;12.05;6.85;;;0.50;99.90;;;;;;2603938;54;20022;31
2021/12/22 12:11:52;;;;;;;11.63;7.15;;;0.40;99.90;;;;;;2792496;31;20560;31
2021/12/22 12:14:59;;;;;;;11.85;7.38;;;0.40;99.90;;;;;;2604300;54;20050;31
2021/12/22 12:23:27;;;;;;;12.30;7.53;;;0.30;99.90;;;;;;2604033;54;20894;31
2021/12/22 12:26:04;;;;;;;12.95;7.65;;;0.20;99.90;;;;;;2604066;54;20133;31
2021/12/22 12:28:49;;;;;;;13.75;8.25;;;0.10;99.90;;;;;;2603889;54;20034;31
2021/12/22 12:31:41;;;;;;;13.75;8.05;;;0.10;99.90;;;;;;2603584;54;20090;31
2021/12/22 12:34:22;;;;;;;12.77;8.02;;;0.10;99.90;;;;;;2603840;54;20466;31
2021/12/22 12:36:55;;;;;;;13.35;7.40;;;0.00;99.90;;;;;;2603629;54;20023;31
2021/12/22 12:40:00;;;;;;;13.77;7.82;;;0.00;99.90;;;;;;2612312;54;20149;31
2021/12/22 12:42:59;;;;;;;13.07;8.00;;;0.00;99.90;;;;;;2603752;54;20866;31
2021/12/22 12:45:46;;;;;;;14.27;7.22;;;0.00;99.90;;;;;;2603949;54;20050;31
2021/12/22 12:48:30;;;;;;;18.50;8.45;;;0.00;99.90;;;;;;2608845;46;20027;31
2021/12/22 12:51:14;;;;;;;13.55;8.10;;;0.00;99.90;;;;;;2603662;54;20072;31
2021/12/22 12:53:49;;;;;;;13.85;7.40;;;0.10;99.90;;;;;;2678449;39;20572;31
2021/12/22 12:56:33;;;;;;;14.20;8.40;;;0.00;99.90;;;;;;2702182;39;20461;31
2021/12/22 12:59:06;;;;;;;12.95;7.38;;;0.10;99.90;;;;;;2603901;54;20894;31
2021/12/22 13:02:00;;;;;;;13.25;7.00;;;0.10;99.90;;;;;;2702400;39;20393;31
2021/12/22 13:04:39;;;;;;;12.20;7.40;;;0.10;99.90;;;;;;2603791;54;20042;31
2021/12/22 13:07:19;;;;;;;12.45;7.88;;;0.20;99.90;;;;;;2603928;54;20482;31
2021/12/22 13:09:59;;;;;;;13.15;7.70;;;0.10;99.90;;;;;;2603564;54;20918;31
2021/12/22 13:12:48;;;;;;;12.20;7.85;;;0.10;99.90;;;;;;2603494;54;20038;31
2021/12/22 13:18:16;;;;;;;13.05;7.32;;;0.10;99.90;;;;;;2603981;54;20026;31
2021/12/22 13:20:49;;;;;;;15.40;9.60;;;0.10;99.90;;;;;;2609852;39;21026;31
2021/12/22 13:23:25;;;;;;;17.00;9.65;;;0.00;99.90;;;;;;2610019;39;21038;31
2021/12/22 13:26:00;;;;;;;14.95;8.45;;;0.10;99.90;;;;;;2609277;46;20029;31
2021/12/22 13:28:38;;;;;;;15.33;9.00;;;0.00;99.90;;;;;;2702313;39;21019;31
2021/12/22 13:31:13;;;;;;;12.18;7.47;;;0.00;99.90;;;;;;2603338;54;20231;31
2021/12/22 13:34:01;;;;;;;14.80;8.38;;;0.00;99.90;;;;;;2701992;39;20613;31
2021/12/22 13:36:41;;;;;;;13.60;9.10;;;0.00;99.90;;;;;;2603572;54;20113;31
2021/12/22 13:39:18;;;;;;;;;;;0.00;99.90;;;;;;2603703;54;20069;31
2021/12/22 13:41:52;;;;;;;18.08;8.95;;;0.00;99.90;;;;;;2773534;31;20461;31
2021/12/22 13:44:28;;;;;;;16.20;9.00;;;0.00;99.90;;;;;;2603646;54;20046;31
2021/12/22 13:47:03;;;;;;;16.90;10.23;;;0.00;99.90;;;;;;2603594;54;20876;31
2021/12/22 13:49:39;;;;;;;14.15;9.23;;;0.00;99.90;;;;;;2603344;54;20042;31
2021/12/22 13:52:14;;;;;;;16.55;8.90;;;0.10;99.90;;;;;;2607449;46;20871;31
2021/12/22 13:54:49;;;;;;;14.07;8.30;;;0.00;99.90;;;;;;2603519;54;20038;31
2021/12/22 13:57:22;;;;;;;14.02;8.55;;;0.00;99.90;;;;;;2609979;39;20983;31
2021/12/22 14:00:00;;;;;;;12.30;7.95;;;0.10;99.90;;;;;;2603358;54;20501;31
2021/12/22 14:02:43;;;;;;;12.87;7.43;;;0.10;99.90;;;;;;2603536;54;20886;31
2021/12/22 14:05:19;;;;;;;13.40;7.40;;;0.10;99.90;;;;;;2603440;54;20866;31